createdAt,value
2022-10-17T00:00:11.649Z,9.30
2022-10-17T00:02:41.142Z,9.30
2022-10-17T00:05:08.421Z,9.40
2022-10-17T00:07:35.269Z,9.30
2022-10-17T00:10:02.178Z,9.30
2022-10-17T00:12:29.049Z,9.20
2022-10-17T00:14:55.918Z,9.20
2022-10-17T00:17:22.867Z,9.10
2022-10-17T00:19:49.745Z,9.00
2022-10-17T00:22:16.682Z,9.00
2022-10-17T00:24:43.542Z,9.00
2022-10-17T00:27:10.413Z,9.10
2022-10-17T00:29:37.301Z,9.10
2022-10-17T00:32:04.231Z,9.20
2022-10-17T00:34:31.329Z,9.20
2022-10-17T00:36:58.570Z,9.20
2022-10-17T00:39:25.526Z,9.10
2022-10-17T00:41:52.468Z,8.90
2022-10-17T00:44:29.339Z,8.80
2022-10-17T00:47:08.728Z,8.70
2022-10-17T00:49:36.810Z,8.60
2022-10-17T00:52:06.223Z,8.60
2022-10-17T00:54:34.663Z,8.70
2022-10-17T00:57:02.208Z,8.70
2022-10-17T00:59:29.874Z,8.80
2022-10-17T01:02:02.133Z,8.70
2022-10-17T01:04:29.135Z,8.70
2022-10-17T01:06:57.028Z,8.70
2022-10-17T01:09:24.985Z,8.50
2022-10-17T01:11:59.996Z,8.40
2022-10-17T01:14:32.944Z,8.30
2022-10-17T01:17:10.432Z,8.30
2022-10-17T01:19:52.583Z,8.20
2022-10-17T01:22:37.722Z,8.40
2022-10-17T01:25:13.882Z,8.40
2022-10-17T01:27:59.445Z,8.20
2022-10-17T01:30:35.918Z,8.20
2022-10-17T01:33:05.923Z,8.10
2022-10-17T01:35:36.295Z,8.10
2022-10-17T01:38:03.214Z,8.10
2022-10-17T01:40:34.170Z,8.10
2022-10-17T01:43:05.277Z,8.00
2022-10-17T01:45:32.321Z,8.00
2022-10-17T01:48:02.457Z,7.90
2022-10-17T01:50:32.568Z,7.80
2022-10-17T01:53:05.247Z,7.70
2022-10-17T01:55:34.034Z,7.70
2022-10-17T01:58:07.698Z,7.60
2022-10-17T02:00:35.652Z,7.50
2022-10-17T02:03:07.524Z,7.50
2022-10-17T02:05:37.900Z,7.50
2022-10-17T02:08:05.106Z,7.60
2022-10-17T02:10:32.114Z,7.70
2022-10-17T02:13:11.196Z,7.70
2022-10-17T02:15:41.115Z,7.80
2022-10-17T02:18:28.047Z,7.80
2022-10-17T02:21:03.139Z,7.80
2022-10-17T02:23:33.843Z,7.90
2022-10-17T02:26:06.899Z,7.90
2022-10-17T02:28:39.775Z,7.80
2022-10-17T02:31:15.920Z,7.80
2022-10-17T02:33:48.992Z,7.90
2022-10-17T02:36:20.134Z,8.00
2022-10-17T02:38:47.395Z,8.10
2022-10-17T02:41:15.914Z,8.20
2022-10-17T02:43:45.608Z,8.20
2022-10-17T02:46:20.852Z,8.20
2022-10-17T02:49:01.070Z,8.20
2022-10-17T02:51:28.144Z,8.20
2022-10-17T02:53:55.007Z,8.30
2022-10-17T02:56:22.398Z,8.30
2022-10-17T02:58:51.771Z,8.20
2022-10-17T03:01:19.253Z,8.10
2022-10-17T03:03:46.573Z,8.10
2022-10-17T03:06:13.566Z,8.20
2022-10-17T03:08:40.507Z,8.10
2022-10-17T03:11:07.683Z,8.00
2022-10-17T03:13:36.339Z,8.00
2022-10-17T03:16:06.827Z,7.90
2022-10-17T03:18:33.978Z,7.80
2022-10-17T03:21:02.962Z,7.70
2022-10-17T03:23:30.060Z,7.60
2022-10-17T03:25:57.367Z,7.60
2022-10-17T03:28:24.688Z,7.50
2022-10-17T03:30:51.688Z,7.60
2022-10-17T03:33:18.693Z,7.60
2022-10-17T03:35:45.729Z,7.50
2022-10-17T03:38:12.992Z,7.50
2022-10-17T03:40:40.013Z,7.40
2022-10-17T03:43:07.001Z,7.50
2022-10-17T03:45:33.869Z,7.50
2022-10-17T03:48:01.534Z,7.50
2022-10-17T03:50:29.955Z,7.60
2022-10-17T03:52:57.884Z,7.60
2022-10-17T03:55:24.974Z,7.60
2022-10-17T03:57:54.307Z,7.70
2022-10-17T04:00:23.131Z,7.70
2022-10-17T04:02:55.798Z,7.70
2022-10-17T04:05:22.817Z,7.70
2022-10-17T04:07:49.709Z,7.70
2022-10-17T04:10:19.395Z,7.80
2022-10-17T04:12:47.398Z,7.80
2022-10-17T04:15:14.954Z,7.70
2022-10-17T04:17:41.899Z,7.80
2022-10-17T04:20:09.120Z,8.00
2022-10-17T04:22:36.906Z,8.20
2022-10-17T04:25:04.772Z,8.20
2022-10-17T04:27:38.096Z,8.30
2022-10-17T04:30:06.360Z,8.40
2022-10-17T04:32:36.694Z,8.40
2022-10-17T04:35:09.450Z,8.50
2022-10-17T04:37:37.066Z,8.50
2022-10-17T04:40:10.677Z,8.50
2022-10-17T04:42:38.094Z,8.60
2022-10-17T04:45:06.033Z,8.50
2022-10-17T04:47:33.064Z,8.60
2022-10-17T04:50:00.544Z,8.60
2022-10-17T04:52:30.685Z,8.70
2022-10-17T04:55:01.275Z,8.60
2022-10-17T04:57:28.524Z,8.60
2022-10-17T05:00:04.319Z,8.60
2022-10-17T05:03:03.803Z,8.70
2022-10-17T05:05:31.066Z,8.80
2022-10-17T05:07:57.989Z,8.90
2022-10-17T05:10:29.143Z,9.00
2022-10-17T05:12:57.698Z,9.00
2022-10-17T05:15:29.284Z,9.00
2022-10-17T05:17:57.068Z,9.10
2022-10-17T05:20:25.733Z,9.20
2022-10-17T05:22:53.016Z,9.20
2022-10-17T05:25:20.768Z,9.30
2022-10-17T05:27:47.617Z,9.30
2022-10-17T05:30:15.355Z,9.30
2022-10-17T05:32:43.907Z,9.30
2022-10-17T05:35:10.864Z,9.20
2022-10-17T05:37:38.892Z,9.20
2022-10-17T05:40:06.674Z,9.00
2022-10-17T05:42:34.019Z,8.80
2022-10-17T05:45:01.749Z,8.70
2022-10-17T05:47:30.117Z,8.70
2022-10-17T05:49:57.233Z,8.80
2022-10-17T05:52:31.881Z,8.90
2022-10-17T05:55:11.910Z,9.00
2022-10-17T05:57:39.775Z,9.20
2022-10-17T06:00:11.282Z,9.40
2022-10-17T06:02:53.318Z,9.50
2022-10-17T06:05:20.606Z,9.60
2022-10-17T06:07:49.293Z,9.70
2022-10-17T06:10:18.346Z,9.70
2022-10-17T06:12:45.552Z,9.90
2022-10-17T06:15:13.003Z,10.00
2022-10-17T06:17:43.495Z,10.10
2022-10-17T06:20:10.830Z,10.30
2022-10-17T06:22:37.714Z,10.50
2022-10-17T06:25:09.889Z,10.70
2022-10-17T06:27:36.854Z,11.60
2022-10-17T06:30:04.715Z,13.00
2022-10-17T06:32:32.302Z,14.30
2022-10-17T06:34:59.928Z,15.30
2022-10-17T06:37:33.785Z,16.60
2022-10-17T06:40:05.484Z,17.20
2022-10-17T06:42:32.427Z,18.60
2022-10-17T06:45:34.248Z,20.00
2022-10-17T06:48:27.047Z,19.90
2022-10-17T06:51:13.160Z,20.30
2022-10-17T06:53:59.780Z,20.90
2022-10-17T06:56:33.884Z,21.80
2022-10-17T06:59:27.351Z,23.10
2022-10-17T07:02:14.513Z,24.20
2022-10-17T07:04:43.185Z,25.10
2022-10-17T07:07:12.517Z,26.00
2022-10-17T07:09:39.542Z,26.70
2022-10-17T07:12:08.606Z,25.80
2022-10-17T07:14:36.190Z,25.60
2022-10-17T07:17:04.061Z,25.00
2022-10-17T07:19:32.817Z,25.30
2022-10-17T07:21:59.839Z,26.50
2022-10-17T07:24:27.598Z,26.60
2022-10-17T07:27:18.757Z,26.20
2022-10-17T07:29:46.861Z,25.50
2022-10-17T07:32:35.885Z,25.40
2022-10-17T07:35:04.495Z,25.30
2022-10-17T07:37:32.187Z,26.20
2022-10-17T07:40:00.087Z,26.60
2022-10-17T07:42:28.562Z,26.60
2022-10-17T07:44:55.600Z,27.50
2022-10-17T07:47:23.698Z,28.40
2022-10-17T07:49:51.980Z,28.60
2022-10-17T07:52:18.944Z,28.40
2022-10-17T07:54:45.780Z,28.80
2022-10-17T07:57:12.756Z,29.90
2022-10-17T07:59:39.736Z,30.90
2022-10-17T08:02:08.211Z,31.10
2022-10-17T08:04:36.516Z,30.80
2022-10-17T08:07:19.697Z,30.60
2022-10-17T08:09:49.269Z,31.10
2022-10-17T08:12:16.396Z,31.10
2022-10-17T08:14:43.674Z,30.70
2022-10-17T08:17:10.587Z,30.80
2022-10-17T08:19:41.051Z,31.00
2022-10-17T08:22:08.522Z,30.90
2022-10-17T08:24:35.722Z,29.80
2022-10-17T08:27:02.879Z,29.30
2022-10-17T08:29:29.792Z,28.90
2022-10-17T08:32:00.893Z,28.20
2022-10-17T08:34:28.415Z,27.20
2022-10-17T08:36:55.288Z,25.70
2022-10-17T08:39:22.266Z,24.80
2022-10-17T08:41:52.135Z,23.70
2022-10-17T08:44:25.711Z,22.70
2022-10-17T08:46:54.040Z,21.80
2022-10-17T08:49:25.280Z,20.80
2022-10-17T08:51:55.964Z,19.70
2022-10-17T08:54:27.187Z,19.00
2022-10-17T08:56:55.370Z,18.90
2022-10-17T08:59:29.554Z,18.40
2022-10-17T09:02:14.729Z,17.90
2022-10-17T09:04:44.691Z,17.60
2022-10-17T09:07:28.985Z,17.30
2022-10-17T09:10:05.243Z,17.40
2022-10-17T09:12:32.359Z,17.50
2022-10-17T09:15:12.393Z,17.70
2022-10-17T09:17:50.075Z,17.80
2022-10-17T09:20:22.581Z,17.80
2022-10-17T09:22:52.719Z,18.00
2022-10-17T09:25:20.854Z,18.10
2022-10-17T09:27:47.789Z,17.60
2022-10-17T09:30:43.563Z,17.30
2022-10-17T09:33:28.298Z,17.00
2022-10-17T09:36:02.992Z,16.90
2022-10-17T09:38:34.809Z,17.10
2022-10-17T09:41:02.627Z,17.40
2022-10-17T09:43:29.597Z,17.50
2022-10-17T09:46:09.447Z,17.50
2022-10-17T09:48:52.516Z,17.40
2022-10-17T09:51:26.199Z,17.70
2022-10-17T09:54:15.690Z,17.60
2022-10-17T09:56:58.964Z,17.70
2022-10-17T09:59:34.009Z,17.80
2022-10-17T10:02:09.972Z,17.90
2022-10-17T10:04:59.730Z,17.90
2022-10-17T10:07:29.451Z,17.90
2022-10-17T10:09:57.150Z,17.80
2022-10-17T10:12:25.954Z,17.90
2022-10-17T10:14:54.750Z,17.70
2022-10-17T10:17:33.799Z,17.50
2022-10-17T10:20:01.242Z,17.60
2022-10-17T10:22:28.848Z,17.50
2022-10-17T10:25:11.177Z,17.60
2022-10-17T10:27:39.815Z,17.90
2022-10-17T10:30:07.953Z,17.80
2022-10-17T10:32:36.076Z,18.00
2022-10-17T10:35:23.294Z,18.20
2022-10-17T10:37:52.515Z,18.30
2022-10-17T10:40:19.470Z,18.40
2022-10-17T10:42:51.195Z,18.40
2022-10-17T10:48:18.787Z,18.70
2022-10-17T10:50:48.265Z,18.60
2022-10-17T10:53:18.304Z,18.70
2022-10-17T10:55:48.221Z,18.80
2022-10-17T10:58:34.734Z,18.80
2022-10-17T11:01:10.702Z,18.90
2022-10-17T11:03:56.310Z,19.10
2022-10-17T11:06:27.505Z,19.00
2022-10-17T11:09:09.663Z,18.90
2022-10-17T11:11:42.676Z,18.90
2022-10-17T11:14:13.771Z,19.00
2022-10-17T11:16:47.496Z,19.00
2022-10-17T11:19:14.783Z,19.10
2022-10-17T11:22:07.816Z,19.00
2022-10-17T11:24:38.786Z,19.00
2022-10-17T11:27:06.749Z,19.10
2022-10-17T11:29:36.354Z,19.20
2022-10-17T11:32:09.265Z,19.20
2022-10-17T11:34:39.886Z,19.20
2022-10-17T11:37:12.242Z,19.30
2022-10-17T11:39:42.691Z,19.50
2022-10-17T11:42:15.208Z,19.70
2022-10-17T11:44:43.013Z,19.80
2022-10-17T11:47:19.228Z,20.00
2022-10-17T11:49:50.985Z,19.90
2022-10-17T11:52:26.994Z,19.80
2022-10-17T11:55:16.053Z,19.80
2022-10-17T11:57:46.022Z,19.60
2022-10-17T12:00:16.097Z,19.50
2022-10-17T12:02:49.688Z,19.50
2022-10-17T12:05:20.141Z,19.50
2022-10-17T12:08:13.463Z,19.50
2022-10-17T12:10:46.736Z,19.60
2022-10-17T12:13:29.064Z,19.60
2022-10-17T12:15:56.474Z,19.40
2022-10-17T12:18:29.329Z,19.40
2022-10-17T12:20:58.042Z,19.40
2022-10-17T12:23:29.056Z,19.50
2022-10-17T12:25:58.417Z,19.30
2022-10-17T12:28:40.935Z,19.40
2022-10-17T12:31:12.355Z,19.40
2022-10-17T12:33:49.641Z,19.30
2022-10-17T12:36:22.484Z,19.30
2022-10-17T12:39:11.935Z,19.20
2022-10-17T12:41:38.961Z,19.10
2022-10-17T12:44:27.015Z,19.20
2022-10-17T12:47:05.998Z,19.20
2022-10-17T12:49:37.725Z,19.10
2022-10-17T12:52:19.223Z,19.10
2022-10-17T12:55:11.954Z,19.20
2022-10-17T12:57:51.860Z,19.10
2022-10-17T13:00:18.719Z,19.10
2022-10-17T13:02:45.966Z,19.10
2022-10-17T13:05:19.587Z,19.10
2022-10-17T13:07:48.026Z,19.00
2022-10-17T13:10:20.431Z,19.00
2022-10-17T13:12:47.983Z,19.10
2022-10-17T13:15:17.557Z,19.30
2022-10-17T13:17:44.535Z,19.40
2022-10-17T13:20:28.860Z,19.30
2022-10-17T13:22:58.445Z,19.30
2022-10-17T13:25:26.402Z,19.30
2022-10-17T13:28:04.189Z,19.50
2022-10-17T13:30:32.821Z,19.60
2022-10-17T13:33:00.346Z,19.80
2022-10-17T13:35:55.448Z,19.70
2022-10-17T13:38:17.535Z,19.70
2022-10-17T13:40:49.950Z,19.60
2022-10-17T13:43:19.637Z,19.60
2022-10-17T13:45:50.583Z,19.50
2022-10-17T13:48:19.516Z,19.30
2022-10-17T13:50:48.275Z,19.20
2022-10-17T13:53:44.685Z,19.00
2022-10-17T13:56:30.158Z,19.00
2022-10-17T13:58:59.265Z,18.90
2022-10-17T14:01:27.387Z,18.80
2022-10-17T14:04:07.908Z,18.70
2022-10-17T14:06:46.450Z,18.70
2022-10-17T14:09:27.137Z,18.70
2022-10-17T14:11:59.877Z,18.70
2022-10-17T14:14:27.028Z,18.80
2022-10-17T14:16:54.412Z,18.90
2022-10-17T14:19:24.431Z,19.00
2022-10-17T14:22:30.169Z,19.10
2022-10-17T14:25:01.496Z,19.30
2022-10-17T14:27:38.158Z,19.40
2022-10-17T14:30:07.306Z,19.40
2022-10-17T14:32:35.026Z,19.30
2022-10-17T14:35:18.865Z,19.30
2022-10-17T14:37:51.651Z,19.20
2022-10-17T14:40:19.915Z,19.20
2022-10-17T14:42:48.330Z,19.20
2022-10-17T14:45:23.884Z,19.20
2022-10-17T14:47:51.869Z,19.20
2022-10-17T14:50:21.927Z,19.30
2022-10-17T14:53:21.040Z,19.30
2022-10-17T14:55:55.680Z,19.30
2022-10-17T14:58:28.014Z,19.30
2022-10-17T15:00:55.336Z,19.30
2022-10-17T15:03:24.108Z,19.30
2022-10-17T15:05:51.631Z,19.10
2022-10-17T15:08:19.455Z,19.00
2022-10-17T15:10:47.300Z,18.90
2022-10-17T15:13:33.532Z,18.80
2022-10-17T15:16:01.397Z,18.70
2022-10-17T15:18:28.375Z,18.70
2022-10-17T15:21:04.696Z,18.60
2022-10-17T15:23:33.559Z,18.60
2022-10-17T15:26:00.887Z,18.40
2022-10-17T15:28:27.921Z,18.30
2022-10-17T15:30:54.853Z,18.30
2022-10-17T15:33:21.680Z,18.10
2022-10-17T15:35:48.796Z,18.00
2022-10-17T15:38:17.973Z,17.90
2022-10-17T15:40:46.032Z,17.70
2022-10-17T15:43:15.032Z,17.50
2022-10-17T15:45:44.336Z,17.40
2022-10-17T15:48:18.856Z,17.20
2022-10-17T15:50:45.820Z,17.10
2022-10-17T15:53:12.903Z,16.90
2022-10-17T15:55:40.056Z,16.70
2022-10-17T15:58:06.993Z,16.60
2022-10-17T16:00:33.893Z,16.40
2022-10-17T16:03:00.797Z,16.20
2022-10-17T16:05:29.365Z,16.10
2022-10-17T16:07:57.566Z,15.90
2022-10-17T16:10:26.025Z,15.80
2022-10-17T16:12:53.044Z,15.60
2022-10-17T16:15:24.838Z,15.40
2022-10-17T16:17:52.436Z,15.30
2022-10-17T16:20:19.948Z,15.10
2022-10-17T16:22:47.601Z,15.00
2022-10-17T16:25:19.864Z,14.90
2022-10-17T16:27:47.661Z,14.70
2022-10-17T16:30:14.863Z,14.50
2022-10-17T16:32:42.226Z,14.40
2022-10-17T16:35:09.766Z,14.30
2022-10-17T16:37:36.758Z,14.20
2022-10-17T16:40:04.473Z,14.10
2022-10-17T16:42:31.552Z,13.90
2022-10-17T16:44:58.729Z,13.90
2022-10-17T16:47:25.595Z,13.80
2022-10-17T16:49:52.480Z,13.70
2022-10-17T16:52:19.401Z,13.70
2022-10-17T16:54:46.316Z,13.70
2022-10-17T16:57:13.164Z,13.60
2022-10-17T16:59:40.005Z,13.50
2022-10-17T17:02:07.134Z,13.50
2022-10-17T17:04:34.087Z,13.40
2022-10-17T17:07:01.126Z,13.30
2022-10-17T17:09:31.943Z,13.20
2022-10-17T17:11:58.870Z,13.10
2022-10-17T17:14:25.800Z,13.10
2022-10-17T17:16:52.724Z,13.00
2022-10-17T17:19:20.504Z,12.90
2022-10-17T17:21:51.098Z,12.90
2022-10-17T17:24:20.940Z,12.90
2022-10-17T17:26:54.783Z,12.90
2022-10-17T17:29:22.073Z,12.80
2022-10-17T17:31:49.564Z,12.80
2022-10-17T17:34:18.131Z,12.90
2022-10-17T17:36:45.399Z,13.00
2022-10-17T17:39:13.810Z,13.00
2022-10-17T17:41:41.324Z,13.10
2022-10-17T17:44:15.629Z,13.10
2022-10-17T17:46:44.128Z,13.20
2022-10-17T17:49:11.681Z,13.10
2022-10-17T17:51:38.699Z,13.10
2022-10-17T17:54:05.570Z,13.10
2022-10-17T17:56:32.500Z,13.10
2022-10-17T17:59:00.463Z,13.00
2022-10-17T18:01:28.922Z,13.00
2022-10-17T18:03:59.063Z,12.90
2022-10-17T18:06:26.377Z,12.80
2022-10-17T18:08:54.933Z,12.70
2022-10-17T18:11:22.371Z,12.50
2022-10-17T18:14:15.777Z,12.40
2022-10-17T18:16:46.122Z,12.20
2022-10-17T18:19:13.327Z,12.20
2022-10-17T18:21:40.199Z,12.10
2022-10-17T18:24:10.347Z,12.10
2022-10-17T18:26:37.305Z,12.00
2022-10-17T18:29:04.365Z,11.80
2022-10-17T18:31:36.172Z,11.70
2022-10-17T18:34:04.194Z,11.70
2022-10-17T18:36:31.551Z,11.60
2022-10-17T18:38:59.316Z,11.60
2022-10-17T18:41:27.033Z,11.60
2022-10-17T18:43:54.591Z,11.60
2022-10-17T18:46:22.544Z,11.60
2022-10-17T18:48:50.195Z,11.60
2022-10-17T18:51:18.406Z,11.60
2022-10-17T18:53:46.564Z,11.70
2022-10-17T18:56:13.717Z,11.70
2022-10-17T18:58:41.112Z,11.80
2022-10-17T19:01:10.506Z,12.00
2022-10-17T19:03:37.840Z,12.10
2022-10-17T19:06:09.183Z,12.10
2022-10-17T19:08:36.820Z,12.20
2022-10-17T19:11:07.947Z,11.90
2022-10-17T19:13:35.435Z,11.70
2022-10-17T19:16:06.970Z,11.50
2022-10-17T19:18:34.311Z,11.40
2022-10-17T19:21:02.175Z,11.30
2022-10-17T19:23:30.713Z,11.30
2022-10-17T19:26:11.360Z,11.30
2022-10-17T19:28:39.412Z,11.30
2022-10-17T19:31:06.767Z,11.40
2022-10-17T19:33:33.847Z,11.40
2022-10-17T19:36:01.990Z,11.60
2022-10-17T19:38:28.950Z,11.70
2022-10-17T19:40:55.982Z,11.80
2022-10-17T19:43:23.270Z,11.90
2022-10-17T19:45:56.752Z,12.00
2022-10-17T19:48:24.125Z,12.00
2022-10-17T19:50:51.216Z,12.20
2022-10-17T19:53:18.461Z,12.20
2022-10-17T19:55:45.490Z,12.20
2022-10-17T19:58:12.350Z,12.30
2022-10-17T20:00:49.484Z,12.30
2022-10-17T20:03:16.665Z,12.20
2022-10-17T20:05:43.659Z,12.20
2022-10-17T20:08:10.578Z,12.20
2022-10-17T20:10:37.477Z,12.20
2022-10-17T20:13:04.371Z,12.20
2022-10-17T20:15:31.269Z,12.20
2022-10-17T20:17:58.156Z,12.10
2022-10-17T20:20:25.542Z,12.10
2022-10-17T20:22:52.476Z,12.10
2022-10-17T20:25:19.596Z,12.20
2022-10-17T20:27:46.673Z,12.20
2022-10-17T20:30:13.551Z,12.20
2022-10-17T20:32:40.718Z,12.30
2022-10-17T20:35:08.270Z,12.20
2022-10-17T20:37:41.448Z,12.20
2022-10-17T20:42:59.426Z,12.20
2022-10-17T20:45:37.679Z,12.20
2022-10-17T20:48:15.204Z,12.20
2022-10-17T20:50:43.061Z,12.20
2022-10-17T20:53:34.896Z,12.20
2022-10-17T20:56:12.939Z,12.20
2022-10-17T20:58:39.883Z,12.20
2022-10-17T21:01:10.388Z,12.10
2022-10-17T21:03:42.326Z,12.00
2022-10-17T21:06:12.894Z,11.90
2022-10-17T21:08:39.811Z,11.90
2022-10-17T21:11:07.783Z,11.90
2022-10-17T21:13:34.832Z,11.90
2022-10-17T21:16:09.007Z,11.90
2022-10-17T21:18:35.860Z,11.90
2022-10-17T21:21:08.883Z,11.80
2022-10-17T21:23:35.939Z,11.80
2022-10-17T21:26:04.213Z,11.90
2022-10-17T21:28:32.258Z,11.80
2022-10-17T21:31:14.456Z,11.80
2022-10-17T21:33:41.992Z,11.80
2022-10-17T21:36:09.659Z,11.70
2022-10-17T21:38:39.717Z,11.80
2022-10-17T21:41:07.615Z,11.80
2022-10-17T21:43:37.240Z,11.80
2022-10-17T21:46:04.859Z,11.80
2022-10-17T21:48:32.029Z,11.80
2022-10-17T21:51:03.356Z,11.80
2022-10-17T21:53:30.784Z,11.50
2022-10-17T21:56:04.767Z,11.30
2022-10-17T21:58:31.928Z,11.30
2022-10-17T22:01:08.172Z,11.20
2022-10-17T22:03:35.935Z,11.10
2022-10-17T22:06:12.928Z,11.10
2022-10-17T22:08:50.623Z,11.20
2022-10-17T22:11:19.064Z,11.30
2022-10-17T22:13:46.032Z,11.40
2022-10-17T22:16:14.057Z,11.50
2022-10-17T22:18:41.436Z,11.50
2022-10-17T22:21:10.062Z,11.50
2022-10-17T22:23:38.342Z,11.60
2022-10-17T22:26:05.896Z,11.70
2022-10-17T22:28:33.452Z,11.70
2022-10-17T22:31:00.713Z,11.60
2022-10-17T22:33:28.037Z,11.60
2022-10-17T22:35:54.965Z,11.60
2022-10-17T22:38:21.892Z,11.70
2022-10-17T22:40:48.807Z,11.60
2022-10-17T22:43:15.757Z,11.60
2022-10-17T22:45:42.696Z,11.50
2022-10-17T22:48:09.900Z,11.60
2022-10-17T22:50:39.992Z,11.60
2022-10-17T22:53:07.062Z,11.60
2022-10-17T22:55:34.033Z,11.60
2022-10-17T22:58:00.927Z,11.60
2022-10-17T23:02:56.046Z,11.60
2022-10-17T23:05:22.965Z,11.50
2022-10-17T23:07:49.935Z,11.50
2022-10-17T23:10:16.941Z,11.40
2022-10-17T23:12:43.903Z,11.40
2022-10-17T23:15:10.900Z,11.30
2022-10-17T23:17:37.850Z,11.20
2022-10-17T23:20:05.006Z,11.10
2022-10-17T23:22:32.273Z,11.00
2022-10-17T23:24:59.389Z,10.90
2022-10-17T23:27:26.423Z,11.00
2022-10-17T23:29:53.426Z,11.10
2022-10-17T23:32:20.969Z,11.30
2022-10-17T23:34:47.905Z,11.30
2022-10-17T23:37:14.993Z,11.40
2022-10-17T23:39:41.961Z,11.40
2022-10-17T23:42:08.887Z,11.40
2022-10-17T23:44:35.940Z,11.40
2022-10-17T23:47:02.907Z,11.30
2022-10-17T23:49:30.060Z,11.10
2022-10-17T23:51:57.037Z,11.00
2022-10-17T23:54:23.959Z,10.90
2022-10-17T23:56:50.893Z,10.80
2022-10-17T23:59:17.908Z,10.60
